CDT,Max TemperatureF,Mean TemperatureF,Min TemperatureF,Max Dew PointF,MeanDew PointF,Min DewpointF,Max Humidity, Mean Humidity, Min Humidity, Max Sea Level PressureIn, Mean Sea Level PressureIn, Min Sea Level PressureIn, Max VisibilityMiles, Mean VisibilityMiles, Min VisibilityMiles, Max Wind SpeedMPH, Mean Wind SpeedMPH, Max Gust SpeedMPH,PrecipitationIn, CloudCover, Events, WindDirDegrees
2013-7-1,84,68,53,59,53,48,100,62,29,30.18,30.15,30.12,10,10,5,15,4,22,0.00,1,,45
2013-7-2,84,70,55,59,54,48,100,62,30,30.16,30.11,30.05,10,10,5,14,3,22,0.00,1,,18
2013-7-3,82,68,55,61,56,52,94,68,35,30.08,30.05,29.96,10,10,9,8,1,,0.00,1,,104
2013-7-4,86,74,62,61,57,54,83,51,35,30.02,29.97,29.93,10,10,10,20,9,24,0.00,0,,191
2013-7-5,89,78,66,64,60,57,73,56,40,29.97,29.93,29.88,10,10,10,21,12,29,0.00,0,,181
2013-7-6,91,80,69,66,63,59,73,56,41,29.94,29.89,29.84,10,10,8,21,13,31,0.00,0,,177
2013-7-7,91,81,71,72,67,63,78,64,49,29.92,29.89,29.86,10,10,9,16,9,21,0.00,1,,202
2013-7-8,93,81,69,75,71,66,94,72,46,29.98,29.95,29.90,10,10,8,12,4,16,0.00,0,,96
2013-7-9,93,83,73,73,72,68,94,76,52,29.98,29.92,29.88,10,10,5,12,5,16,0.03,2,Thunderstorm,258
2013-7-10,80,71,62,70,58,52,88,63,37,30.09,30.05,29.97,10,10,10,13,5,18,0.00,0,,357
2013-7-11,84,70,57,59,56,54,94,59,35,30.14,30.09,30.02,10,10,7,12,4,18,0.00,0,,150
2013-7-12,87,76,66,63,59,55,73,55,40,30.07,30.02,29.97,10,10,10,23,10,28,0.00,0,,168
2013-7-13,78,74,69,64,60,55,73,61,53,30.07,30.02,29.99,10,10,10,17,12,24,0.00,1,,154
2013-7-14,87,76,66,64,62,61,83,62,40,30.20,30.12,30.08,10,10,6,14,8,21,0.00,0,,148
2013-7-15,89,76,62,70,66,61,94,69,49,30.26,30.21,30.16,10,10,7,13,5,18,0.00,1,,136
2013-7-16,91,82,73,72,70,66,88,68,46,30.27,30.24,30.20,10,10,10,12,6,16,0.00,1,,196
2013-7-17,93,81,69,73,70,66,100,68,41,30.31,30.26,30.18,10,10,4,12,3,16,0.00,0,,205
2013-7-18,93,83,73,72,69,66,88,65,44,30.19,30.06,29.92,10,10,7,18,8,28,0.00,0,,213
2013-7-19,91,80,66,73,65,59,94,61,38,29.96,29.90,29.85,10,10,7,15,8,23,0.03,1,Thunderstorm,286
2013-7-20,84,70,57,64,61,55,100,71,45,30.00,29.95,29.90,10,10,0,7,1,,0.00,0,,266
2013-7-21,84,74,64,66,64,61,94,71,48,29.95,29.88,29.82,10,10,10,15,4,20,0.00,2,,152
2013-7-22,93,80,66,72,67,61,100,71,46,29.88,29.79,29.70,10,10,10,20,8,28,0.00,1,Thunderstorm,220
2013-7-23,78,69,57,61,56,52,88,66,44,30.03,29.97,29.87,10,10,10,12,6,17,0.00,0,,13
2013-7-24,80,66,51,59,55,48,94,67,44,30.10,30.05,30.02,10,10,10,8,3,,0.00,2,,32
2013-7-25,87,73,59,64,62,55,94,70,46,30.06,30.01,29.93,10,10,10,21,6,30,0.01,2,Thunderstorm,211
2013-7-26,71,65,57,64,56,52,100,73,53,30.09,30.04,29.96,10,9,3,15,5,23,0.01,4,,326
2013-7-27,69,60,50,50,46,43,88,64,40,30.12,30.07,30.01,10,10,10,14,6,22,0.00,2,,328
2013-7-28,73,60,48,52,47,43,87,63,38,30.08,30.04,30.00,10,10,8,12,4,18,0.00,0,,341
2013-7-29,77,62,46,57,51,43,100,66,44,30.14,30.10,30.08,10,10,2,12,3,17,0.00,2,,157
2013-7-30,71,66,62,64,62,57,100,84,73,30.11,30.09,30.07,10,8,2,8,4,,0.01,8,,114
2013-7-31,80,68,55,66,61,55,100,78,51,30.14,30.10,30.05,10,7,0,9,2,,0.00,4,,324